createdAt,value
2023-01-18T00:00:40.927Z,2.17
2023-01-18T00:03:13.270Z,0.80
2023-01-18T00:05:42.141Z,0.85
2023-01-18T00:08:13.103Z,1.38
2023-01-18T00:10:40.336Z,1.20
2023-01-18T00:13:07.181Z,1.27
2023-01-18T00:15:35.199Z,1.27
2023-01-18T00:18:02.760Z,1.13
2023-01-18T00:20:30.812Z,2.38
2023-01-18T00:23:00.428Z,1.27
2023-01-18T00:25:27.454Z,0.63
2023-01-18T00:27:55.672Z,1.33
2023-01-18T00:30:25.803Z,1.15
2023-01-18T00:32:55.533Z,1.20
2023-01-18T00:35:23.632Z,1.45
2023-01-18T00:37:51.718Z,1.10
2023-01-18T00:40:22.662Z,1.45
2023-01-18T00:43:08.209Z,1.08
2023-01-18T00:45:35.156Z,1.00
2023-01-18T00:48:02.772Z,0.95
2023-01-18T00:50:29.893Z,0.80
2023-01-18T00:52:58.821Z,0.68
2023-01-18T00:55:26.487Z,1.02
2023-01-18T00:57:53.508Z,1.35
2023-01-18T01:00:26.644Z,0.95
2023-01-18T01:02:53.931Z,1.48
2023-01-18T01:05:43.129Z,1.10
2023-01-18T01:08:17.469Z,0.93
2023-01-18T01:10:49.998Z,1.10
2023-01-18T01:13:38.237Z,1.42
2023-01-18T01:16:32.348Z,0.90
2023-01-18T01:19:17.745Z,1.58
2023-01-18T01:22:03.356Z,1.08
2023-01-18T01:24:48.642Z,0.98
2023-01-18T01:27:15.616Z,0.82
2023-01-18T01:29:42.499Z,0.57
2023-01-18T01:32:10.255Z,0.47
2023-01-18T01:34:37.214Z,0.55
2023-01-18T01:37:04.836Z,0.57
2023-01-18T01:39:31.763Z,1.58
2023-01-18T01:41:58.628Z,0.40
2023-01-18T01:44:28.053Z,0.60
2023-01-18T01:46:59.320Z,0.82
2023-01-18T01:49:42.911Z,0.77
2023-01-18T01:52:16.384Z,1.35
2023-01-18T01:55:04.675Z,0.52
2023-01-18T01:57:36.636Z,0.77
2023-01-18T02:00:14.544Z,1.00
2023-01-18T02:02:44.739Z,0.70
2023-01-18T02:05:14.157Z,1.05
2023-01-18T02:07:41.269Z,0.60
2023-01-18T02:10:08.895Z,1.45
2023-01-18T02:12:38.423Z,0.73
2023-01-18T02:15:06.118Z,1.07
2023-01-18T02:17:32.876Z,0.77
2023-01-18T02:20:21.881Z,1.02
2023-01-18T02:22:58.066Z,0.40
2023-01-18T02:25:39.862Z,0.73
2023-01-18T02:28:12.607Z,1.20
2023-01-18T02:30:46.773Z,0.50
2023-01-18T02:33:34.744Z,0.82
2023-01-18T02:36:03.909Z,0.70
2023-01-18T02:38:45.625Z,0.30
2023-01-18T02:41:21.483Z,0.50
2023-01-18T02:44:12.440Z,0.70
2023-01-18T02:46:40.445Z,0.30
2023-01-18T02:49:18.313Z,0.47
2023-01-18T02:51:45.177Z,0.22
2023-01-18T02:54:24.097Z,0.20
2023-01-18T02:56:53.975Z,0.57
2023-01-18T02:59:26.783Z,1.08
2023-01-18T03:01:59.523Z,0.20
2023-01-18T03:04:35.669Z,0.28
2023-01-18T03:07:09.509Z,0.20
2023-01-18T03:09:37.066Z,0.35
2023-01-18T03:12:25.840Z,1.02
2023-01-18T03:15:05.730Z,2.75
2023-01-18T03:17:43.664Z,0.82
2023-01-18T03:20:13.316Z,1.98
2023-01-18T03:23:07.994Z,0.63
2023-01-18T03:25:42.358Z,0.75
2023-01-18T03:28:38.428Z,0.50
2023-01-18T03:31:28.658Z,0.63
2023-01-18T03:34:00.802Z,0.32
2023-01-18T03:36:31.923Z,0.60
2023-01-18T03:39:06.150Z,0.90
2023-01-18T03:41:37.102Z,1.05
2023-01-18T03:44:11.755Z,1.10
2023-01-18T03:46:40.494Z,0.88
2023-01-18T03:49:08.273Z,1.25
2023-01-18T03:51:47.435Z,1.08
2023-01-18T03:54:23.176Z,0.80
2023-01-18T03:57:01.101Z,1.10
2023-01-18T03:59:33.771Z,0.85
2023-01-18T04:02:01.063Z,1.25
2023-01-18T04:04:27.896Z,0.70
2023-01-18T04:06:54.719Z,0.93
2023-01-18T04:09:21.594Z,1.55
2023-01-18T04:11:48.420Z,0.60
2023-01-18T04:14:15.420Z,0.77
2023-01-18T04:16:42.235Z,1.10
2023-01-18T04:19:09.067Z,1.05
2023-01-18T04:21:35.998Z,0.40
2023-01-18T04:24:02.836Z,1.20
2023-01-18T04:26:30.031Z,0.70
2023-01-18T04:28:56.992Z,0.55
2023-01-18T04:31:23.829Z,0.60
2023-01-18T04:33:51.674Z,0.77
2023-01-18T04:36:20.195Z,0.43
2023-01-18T04:38:47.031Z,0.95
2023-01-18T04:41:13.841Z,0.50
2023-01-18T04:43:40.701Z,0.80
2023-01-18T04:46:07.489Z,0.93
2023-01-18T04:48:34.339Z,0.70
2023-01-18T04:51:01.148Z,1.35
2023-01-18T04:53:27.964Z,0.70
2023-01-18T04:55:54.878Z,1.02
2023-01-18T04:58:21.723Z,0.90
2023-01-18T05:00:49.165Z,0.90
2023-01-18T05:03:16.253Z,0.80
2023-01-18T05:05:43.102Z,0.63
2023-01-18T05:08:09.981Z,0.60
2023-01-18T05:10:36.788Z,0.60
2023-01-18T05:13:03.900Z,1.42
2023-01-18T05:15:30.836Z,0.90
2023-01-18T05:17:57.705Z,1.00
2023-01-18T05:20:24.491Z,1.23
2023-01-18T05:22:51.317Z,1.33
2023-01-18T05:25:18.169Z,2.45
2023-01-18T05:27:45.004Z,0.93
2023-01-18T05:30:12.384Z,0.47
2023-01-18T05:32:39.365Z,1.67
2023-01-18T05:35:06.618Z,0.80
2023-01-18T05:37:33.858Z,1.00
2023-01-18T05:40:01.435Z,1.48
2023-01-18T05:42:28.334Z,1.30
2023-01-18T05:44:55.151Z,1.48
2023-01-18T05:47:22.482Z,0.68
2023-01-18T05:49:49.577Z,0.80
2023-01-18T05:52:17.091Z,1.13
2023-01-18T05:54:43.913Z,0.90
2023-01-18T05:57:10.940Z,0.80
2023-01-18T05:59:37.811Z,0.82
2023-01-18T06:02:04.961Z,0.77
2023-01-18T06:04:31.911Z,0.75
2023-01-18T06:06:59.067Z,0.80
2023-01-18T06:09:25.975Z,1.70
2023-01-18T06:11:52.767Z,0.95
2023-01-18T06:14:19.621Z,1.08
2023-01-18T06:16:46.521Z,0.88
2023-01-18T06:19:13.478Z,1.25
2023-01-18T06:21:40.285Z,1.13
2023-01-18T06:24:07.437Z,1.27
2023-01-18T06:26:34.784Z,1.40
2023-01-18T06:29:01.568Z,1.20
2023-01-18T06:31:28.402Z,1.23
2023-01-18T06:33:55.220Z,1.40
2023-01-18T06:36:22.298Z,1.27
2023-01-18T06:38:49.309Z,1.77
2023-01-18T06:41:16.099Z,2.05
2023-01-18T06:43:43.123Z,2.22
2023-01-18T06:46:11.645Z,2.00
2023-01-18T06:48:38.733Z,2.47
2023-01-18T06:51:05.738Z,2.28
2023-01-18T06:53:32.613Z,1.67
2023-01-18T06:56:01.945Z,2.75
2023-01-18T06:58:32.778Z,3.13
2023-01-18T07:01:00.789Z,2.38
2023-01-18T07:03:29.268Z,3.33
2023-01-18T07:05:58.686Z,2.42
2023-01-18T07:08:27.007Z,2.67
2023-01-18T07:10:54.421Z,2.10
2023-01-18T07:13:22.226Z,2.00
2023-01-18T07:16:00.856Z,2.03
2023-01-18T07:18:29.884Z,2.22
2023-01-18T07:21:04.546Z,2.78
2023-01-18T07:23:39.370Z,1.63
2023-01-18T07:26:11.789Z,1.23
2023-01-18T07:28:38.726Z,1.90
2023-01-18T07:31:07.982Z,1.90
2023-01-18T07:33:35.626Z,2.03
2023-01-18T07:36:07.380Z,2.22
2023-01-18T07:38:34.451Z,2.10
2023-01-18T07:41:04.441Z,1.70
2023-01-18T07:43:33.015Z,1.98
2023-01-18T07:46:00.945Z,2.17
2023-01-18T07:48:28.579Z,2.30
2023-01-18T07:51:00.296Z,1.80
2023-01-18T07:53:28.260Z,2.10
2023-01-18T07:55:58.558Z,1.67
2023-01-18T07:58:25.346Z,2.05
2023-01-18T08:00:52.806Z,2.88
2023-01-18T08:03:20.173Z,1.20
2023-01-18T08:05:47.842Z,2.28
2023-01-18T08:08:17.042Z,4.65
2023-01-18T08:10:44.594Z,1.95
2023-01-18T08:13:11.856Z,2.30
2023-01-18T08:15:39.837Z,1.45
2023-01-18T08:18:08.058Z,1.60
2023-01-18T08:20:35.299Z,1.52
2023-01-18T08:23:02.689Z,1.50
2023-01-18T08:25:31.712Z,1.63
2023-01-18T08:28:00.223Z,1.65
2023-01-18T08:30:30.247Z,1.45
2023-01-18T08:32:59.266Z,2.30
2023-01-18T08:35:28.428Z,3.03
2023-01-18T08:37:56.017Z,1.67
2023-01-18T08:40:23.544Z,2.13
2023-01-18T08:42:51.150Z,1.60
2023-01-18T08:45:18.105Z,1.67
2023-01-18T08:47:44.969Z,1.80
2023-01-18T08:50:11.928Z,1.95
2023-01-18T08:52:38.925Z,1.50
2023-01-18T08:55:07.258Z,1.70
2023-01-18T08:57:34.176Z,1.73
2023-01-18T09:00:01.180Z,1.30
2023-01-18T09:02:28.054Z,1.67
2023-01-18T09:04:54.932Z,1.63
2023-01-18T09:07:21.741Z,1.38
2023-01-18T09:09:48.585Z,1.45
2023-01-18T09:12:15.432Z,1.80
2023-01-18T09:14:42.183Z,2.05
2023-01-18T09:17:09.019Z,1.30
2023-01-18T09:19:35.899Z,1.73
2023-01-18T09:22:03.748Z,1.30
2023-01-18T09:24:30.600Z,1.23
2023-01-18T09:26:57.414Z,1.88
2023-01-18T09:29:24.491Z,1.70
2023-01-18T09:31:53.918Z,1.60
2023-01-18T09:34:20.878Z,1.97
2023-01-18T09:36:52.381Z,2.10
2023-01-18T09:39:20.614Z,1.80
2023-01-18T09:41:56.418Z,1.88
2023-01-18T09:44:36.026Z,1.92
2023-01-18T09:47:22.732Z,1.57
2023-01-18T09:49:54.992Z,1.52
2023-01-18T09:52:57.387Z,2.38
2023-01-18T09:55:51.083Z,1.58
2023-01-18T09:58:52.327Z,1.90
2023-01-18T10:01:23.473Z,1.75
2023-01-18T10:04:02.070Z,1.40
2023-01-18T10:06:35.130Z,1.67
2023-01-18T10:09:15.708Z,1.90
2023-01-18T10:12:12.564Z,1.77
2023-01-18T10:14:48.176Z,2.03
2023-01-18T10:17:21.272Z,1.55
2023-01-18T10:19:48.342Z,1.58
2023-01-18T10:22:33.207Z,2.40
2023-01-18T10:25:05.009Z,2.00
2023-01-18T10:27:51.139Z,2.30
2023-01-18T10:30:40.019Z,2.75
2023-01-18T10:33:23.229Z,2.47
2023-01-18T10:35:55.234Z,2.70
2023-01-18T10:38:26.431Z,3.47
2023-01-18T10:40:58.986Z,2.90
2023-01-18T10:43:28.716Z,3.55
2023-01-18T10:45:56.280Z,4.80
2023-01-18T10:48:34.836Z,3.45
2023-01-18T10:51:05.896Z,3.60
2023-01-18T10:53:40.083Z,3.22
2023-01-18T10:56:09.936Z,3.13
2023-01-18T10:58:50.645Z,2.63
2023-01-18T11:01:24.523Z,3.13
2023-01-18T11:03:55.155Z,3.67
2023-01-18T11:06:23.087Z,4.10
2023-01-18T11:08:50.718Z,3.13
2023-01-18T11:11:51.603Z,3.00
2023-01-18T11:14:29.508Z,3.15
2023-01-18T11:17:10.928Z,2.40
2023-01-18T11:19:39.003Z,3.17
2023-01-18T11:22:12.677Z,3.13
2023-01-18T11:24:40.023Z,2.30
2023-01-18T11:27:20.363Z,3.88
2023-01-18T11:29:47.414Z,3.10
2023-01-18T11:32:30.847Z,3.35
2023-01-18T11:35:00.104Z,3.17
2023-01-18T11:37:26.936Z,2.97
2023-01-18T11:39:53.698Z,3.47
2023-01-18T11:42:34.385Z,3.63
2023-01-18T11:45:40.797Z,3.28
2023-01-18T11:48:36.902Z,2.50
2023-01-18T11:51:34.593Z,3.95
2023-01-18T11:54:26.623Z,3.25
2023-01-18T11:56:56.671Z,3.28
2023-01-18T11:59:25.820Z,2.78
2023-01-18T12:02:01.539Z,3.00
2023-01-18T12:04:40.349Z,3.05
2023-01-18T12:07:33.561Z,3.45
2023-01-18T12:10:08.634Z,2.63
2023-01-18T12:13:02.648Z,3.10
2023-01-18T12:15:49.786Z,2.78
2023-01-18T12:19:10.199Z,2.92
2023-01-18T12:22:04.374Z,2.70
2023-01-18T12:24:31.132Z,3.60
2023-01-18T12:27:02.932Z,2.67
2023-01-18T12:29:58.722Z,2.67
2023-01-18T12:32:55.165Z,2.45
2023-01-18T12:35:51.731Z,2.95
2023-01-18T12:38:28.385Z,2.38
2023-01-18T12:41:32.486Z,2.50
2023-01-18T12:44:17.164Z,2.10
2023-01-18T12:47:07.390Z,2.20
2023-01-18T12:49:45.786Z,1.85
2023-01-18T12:52:18.874Z,3.33
2023-01-18T12:54:50.877Z,2.08
2023-01-18T12:57:19.696Z,1.95
2023-01-18T13:00:33.140Z,3.15
2023-01-18T13:03:00.094Z,1.75
2023-01-18T13:05:52.227Z,1.92
2023-01-18T13:08:54.054Z,1.45
2023-01-18T13:11:35.505Z,2.22
2023-01-18T13:14:17.708Z,2.92
2023-01-18T13:16:55.584Z,2.58
2023-01-18T13:19:29.312Z,1.92
2023-01-18T13:22:26.645Z,1.80
2023-01-18T13:25:31.125Z,2.60
2023-01-18T13:28:14.313Z,2.15
2023-01-18T13:30:56.549Z,2.40
2023-01-18T13:33:27.093Z,2.25
2023-01-18T13:36:02.508Z,2.67
2023-01-18T13:38:41.100Z,2.83
2023-01-18T13:41:12.624Z,2.15
2023-01-18T13:43:46.137Z,2.47
2023-01-18T13:46:18.767Z,2.38
2023-01-18T13:48:50.498Z,2.80
2023-01-18T13:51:42.739Z,3.35
2023-01-18T13:54:29.526Z,2.47
2023-01-18T13:57:05.315Z,2.78
2023-01-18T13:59:45.199Z,2.28
2023-01-18T14:02:34.432Z,3.25
2023-01-18T14:05:26.963Z,3.70
2023-01-18T14:07:58.932Z,5.13
2023-01-18T14:10:38.995Z,5.60
2023-01-18T14:13:13.993Z,5.93
2023-01-18T14:15:43.619Z,4.78
2023-01-18T14:18:30.419Z,4.68
2023-01-18T14:21:23.493Z,4.25
2023-01-18T14:24:09.520Z,3.80
2023-01-18T14:26:39.145Z,3.55
2023-01-18T14:29:11.800Z,3.20
2023-01-18T14:31:47.106Z,4.05
2023-01-18T14:34:29.461Z,3.95
2023-01-18T14:36:57.616Z,3.83
2023-01-18T14:39:24.805Z,3.88
2023-01-18T14:42:04.148Z,4.10
2023-01-18T14:44:57.709Z,3.85
2023-01-18T14:47:30.317Z,4.85
2023-01-18T14:49:57.504Z,3.70
2023-01-18T14:52:28.896Z,3.70
2023-01-18T14:54:56.202Z,4.15
2023-01-18T14:57:24.224Z,3.63
2023-01-18T14:59:53.534Z,4.32
2023-01-18T15:02:24.875Z,3.95
2023-01-18T15:04:52.511Z,3.97
2023-01-18T15:07:30.660Z,3.58
2023-01-18T15:09:58.690Z,3.78
2023-01-18T15:12:31.441Z,3.55
2023-01-18T15:15:15.773Z,4.95
2023-01-18T15:17:43.157Z,5.25
2023-01-18T15:20:14.827Z,6.68
2023-01-18T15:22:42.467Z,5.45
2023-01-18T15:25:24.528Z,5.50
2023-01-18T15:27:52.555Z,6.93
2023-01-18T15:30:22.661Z,6.05
2023-01-18T15:32:57.783Z,6.30
2023-01-18T15:35:25.808Z,8.77
2023-01-18T15:37:52.696Z,6.70
2023-01-18T15:40:19.519Z,6.00
2023-01-18T15:42:51.671Z,8.23
2023-01-18T15:45:24.083Z,6.35
2023-01-18T15:47:54.381Z,5.70
2023-01-18T15:50:36.214Z,7.88
2023-01-18T15:53:06.111Z,7.22
2023-01-18T15:55:45.787Z,8.90
2023-01-18T15:58:15.847Z,8.57
2023-01-18T16:00:46.926Z,6.53
2023-01-18T16:03:31.909Z,6.45
2023-01-18T16:06:15.147Z,5.97
2023-01-18T16:09:16.067Z,8.23
2023-01-18T16:11:47.622Z,9.57
2023-01-18T16:14:32.412Z,9.07
2023-01-18T16:17:02.426Z,8.65
2023-01-18T16:19:31.745Z,7.97
2023-01-18T16:22:01.623Z,7.93
2023-01-18T16:24:36.823Z,9.70
2023-01-18T16:27:12.747Z,9.02
2023-01-18T16:29:52.181Z,7.75
2023-01-18T16:32:24.893Z,8.63
2023-01-18T16:34:55.263Z,9.55
2023-01-18T16:39:49.765Z,10.32
2023-01-18T16:42:18.191Z,9.18
2023-01-18T16:44:47.291Z,7.32
2023-01-18T16:47:16.587Z,7.32
2023-01-18T16:49:44.181Z,8.43
2023-01-18T16:52:12.886Z,7.68
2023-01-18T16:54:44.544Z,8.48
2023-01-18T16:57:23.452Z,8.13
2023-01-18T16:59:50.733Z,8.38
2023-01-18T17:02:17.688Z,8.20
2023-01-18T17:04:46.627Z,7.97
2023-01-18T17:07:14.090Z,8.57
2023-01-18T17:09:48.543Z,9.02
2023-01-18T17:12:16.297Z,8.55
2023-01-18T17:14:43.199Z,8.50
2023-01-18T17:17:11.102Z,9.43
2023-01-18T17:19:38.219Z,9.10
2023-01-18T17:22:06.439Z,7.85
2023-01-18T17:24:33.457Z,7.93
2023-01-18T17:27:01.312Z,8.40
2023-01-18T17:29:28.203Z,6.85
2023-01-18T17:31:55.209Z,8.50
2023-01-18T17:34:27.986Z,8.20
2023-01-18T17:36:58.210Z,9.32
2023-01-18T17:39:36.852Z,13.50
2023-01-18T17:42:18.728Z,9.88
2023-01-18T17:44:49.963Z,9.35
2023-01-18T17:47:16.850Z,8.05
2023-01-18T17:49:43.801Z,8.07
2023-01-18T17:52:10.791Z,9.23
2023-01-18T17:54:37.581Z,9.15
2023-01-18T17:57:05.392Z,10.00
2023-01-18T17:59:32.192Z,9.57
2023-01-18T18:01:59.093Z,8.35
2023-01-18T18:04:26.116Z,9.18
2023-01-18T18:06:58.343Z,8.27
2023-01-18T18:09:25.639Z,9.07
2023-01-18T18:11:53.226Z,9.10
2023-01-18T18:14:20.137Z,9.52
2023-01-18T18:16:47.273Z,9.63
2023-01-18T18:19:14.731Z,8.95
2023-01-18T18:21:45.860Z,9.90
2023-01-18T18:24:12.825Z,9.13
2023-01-18T18:26:39.888Z,10.05
2023-01-18T18:29:06.817Z,9.68
2023-01-18T18:31:33.954Z,9.35
2023-01-18T18:34:00.994Z,9.98
2023-01-18T18:36:28.106Z,10.48
2023-01-18T18:38:54.905Z,10.98
2023-01-18T18:41:21.855Z,10.32
2023-01-18T18:43:48.654Z,13.43
2023-01-18T18:46:15.587Z,12.45
2023-01-18T18:48:42.692Z,12.20
2023-01-18T18:51:09.963Z,13.55
2023-01-18T18:53:41.113Z,13.40
2023-01-18T18:56:10.303Z,13.32
2023-01-18T18:58:38.692Z,12.13
2023-01-18T19:01:06.685Z,11.90
2023-01-18T19:03:34.423Z,12.18
2023-01-18T19:06:01.613Z,10.93
2023-01-18T19:08:28.486Z,12.02
2023-01-18T19:10:57.181Z,12.15
2023-01-18T19:13:24.007Z,10.55
2023-01-18T19:15:51.408Z,10.52
2023-01-18T19:18:18.401Z,12.32
2023-01-18T19:20:45.324Z,11.23
2023-01-18T19:23:12.312Z,11.38
2023-01-18T19:25:39.411Z,11.38
2023-01-18T19:28:06.707Z,11.98
2023-01-18T19:30:33.664Z,10.55
2023-01-18T19:33:00.791Z,12.35
2023-01-18T19:35:28.171Z,12.82
2023-01-18T19:37:55.441Z,14.18
2023-01-18T19:40:22.269Z,12.15
2023-01-18T19:42:55.904Z,13.13
2023-01-18T19:45:28.147Z,14.32
2023-01-18T19:47:57.617Z,14.60
2023-01-18T19:50:25.372Z,14.30
2023-01-18T19:52:52.855Z,13.82
2023-01-18T19:55:21.692Z,15.40
2023-01-18T19:57:49.642Z,14.48
2023-01-18T20:00:16.888Z,16.30
2023-01-18T20:02:44.489Z,15.95
2023-01-18T20:05:11.726Z,12.75
2023-01-18T20:07:39.361Z,12.23
2023-01-18T20:10:07.369Z,13.15
2023-01-18T20:12:34.232Z,13.68
2023-01-18T20:15:01.247Z,15.70
2023-01-18T20:17:28.235Z,14.65
2023-01-18T20:19:55.100Z,16.02
2023-01-18T20:22:22.891Z,15.00
2023-01-18T20:24:50.013Z,15.52
2023-01-18T20:27:17.290Z,15.07
2023-01-18T20:29:44.921Z,15.80
2023-01-18T20:32:19.268Z,21.17
2023-01-18T20:34:47.319Z,18.15
2023-01-18T20:37:15.429Z,17.13
2023-01-18T20:39:42.686Z,14.95
2023-01-18T20:42:09.855Z,17.25
2023-01-18T20:44:36.739Z,15.52
2023-01-18T20:47:04.236Z,13.95
2023-01-18T20:49:38.444Z,12.93
2023-01-18T20:52:07.088Z,16.40
2023-01-18T20:54:36.179Z,20.00
2023-01-18T20:57:04.540Z,18.60
2023-01-18T20:59:31.465Z,16.27
2023-01-18T21:01:58.518Z,12.73
2023-01-18T21:04:25.833Z,12.30
2023-01-18T21:06:52.691Z,13.18
2023-01-18T21:09:19.642Z,13.38
2023-01-18T21:11:46.411Z,14.05
2023-01-18T21:14:13.283Z,13.45
2023-01-18T21:16:40.391Z,12.60
2023-01-18T21:19:07.596Z,12.27
2023-01-18T21:21:34.387Z,12.60
2023-01-18T21:24:01.591Z,13.35
2023-01-18T21:26:32.189Z,11.77
2023-01-18T21:28:59.324Z,12.07
2023-01-18T21:31:28.467Z,12.35
2023-01-18T21:33:55.451Z,11.63
2023-01-18T21:36:23.049Z,11.68
2023-01-18T21:38:50.752Z,10.00
2023-01-18T21:41:36.791Z,11.27
2023-01-18T21:44:22.360Z,10.82
2023-01-18T21:46:51.669Z,10.85
2023-01-18T21:50:19.449Z,10.20
2023-01-18T21:52:43.260Z,10.95
2023-01-18T21:55:10.587Z,8.77
2023-01-18T21:57:38.722Z,10.85
2023-01-18T22:00:06.374Z,10.88
2023-01-18T22:02:36.855Z,11.38
2023-01-18T22:05:04.386Z,10.73
2023-01-18T22:07:33.911Z,11.52
2023-01-18T22:10:06.046Z,9.25
2023-01-18T22:12:35.521Z,10.27
2023-01-18T22:15:04.464Z,8.93
2023-01-18T22:17:31.541Z,10.20
2023-01-18T22:19:58.384Z,8.75
2023-01-18T22:22:25.223Z,9.02
2023-01-18T22:24:52.312Z,9.40
2023-01-18T22:27:19.279Z,8.30
2023-01-18T22:29:46.075Z,9.10
2023-01-18T22:32:13.018Z,9.02
2023-01-18T22:34:39.956Z,8.80
2023-01-18T22:37:06.746Z,8.13
2023-01-18T22:39:33.654Z,8.23
2023-01-18T22:42:00.688Z,7.75
2023-01-18T22:44:27.528Z,8.48
2023-01-18T22:46:54.358Z,7.38
2023-01-18T22:49:21.804Z,8.52
2023-01-18T22:51:48.651Z,8.50
2023-01-18T22:54:15.956Z,8.82
2023-01-18T22:56:42.845Z,8.38
2023-01-18T22:59:09.634Z,8.80
2023-01-18T23:01:36.425Z,9.23
2023-01-18T23:04:04.244Z,9.63
2023-01-18T23:06:42.197Z,8.80
2023-01-18T23:09:10.049Z,10.80
2023-01-18T23:11:37.197Z,10.60
2023-01-18T23:14:22.993Z,10.15
2023-01-18T23:17:08.089Z,10.95
2023-01-18T23:19:35.462Z,10.98
2023-01-18T23:22:07.400Z,12.38
2023-01-18T23:24:36.369Z,10.65
2023-01-18T23:27:05.213Z,10.70
2023-01-18T23:29:32.256Z,11.13
2023-01-18T23:31:59.412Z,10.88
2023-01-18T23:34:26.513Z,9.90
2023-01-18T23:36:53.746Z,9.57
2023-01-18T23:39:39.403Z,9.07
2023-01-18T23:42:24.984Z,11.25
2023-01-18T23:45:10.377Z,8.65
2023-01-18T23:47:56.452Z,7.25
2023-01-18T23:50:41.995Z,5.90
2023-01-18T23:53:32.121Z,3.20
2023-01-18T23:55:59.748Z,2.60
2023-01-18T23:58:27.663Z,2.53
